sensor_id;sensor_type;location;lat;lon;timestamp;pressure;altitude;pressure_sealevel;temperature;humidity
48553;BME280;34335;51.566;6.994;2023-03-01T00:00:35;102483.59;;;-1.26;100.00
48553;BME280;34335;51.566;6.994;2023-03-01T00:03:00;102490.25;;;-1.28;100.00
48553;BME280;34335;51.566;6.994;2023-03-01T00:05:26;102486.81;;;-1.28;100.00
48553;BME280;34335;51.566;6.994;2023-03-01T00:07:54;102487.47;;;-1.31;100.00
48553;BME280;34335;51.566;6.994;2023-03-01T00:10:19;102479.56;;;-1.34;100.00
48553;BME280;34335;51.566;6.994;2023-03-01T00:12:45;102476.78;;;-1.37;100.00
48553;BME280;34335;51.566;6.994;2023-03-01T00:15:10;102476.78;;;-1.37;100.00
48553;BME280;34335;51.566;6.994;2023-03-01T00:17:36;102483.41;;;-1.39;100.00
48553;BME280;34335;51.566;6.994;2023-03-01T00:20:02;102479.88;;;-1.41;100.00
48553;BME280;34335;51.566;6.994;2023-03-01T00:22:27;102483.22;;;-1.42;100.00
48553;BME280;34335;51.566;6.994;2023-03-01T00:24:53;102484.63;;;-1.46;100.00
48553;BME280;34335;51.566;6.994;2023-03-01T00:27:19;102477.63;;;-1.48;100.00
48553;BME280;34335;51.566;6.994;2023-03-01T00:29:44;102476.75;;;-1.49;100.00
48553;BME280;34335;51.566;6.994;2023-03-01T00:32:09;102471.38;;;-1.52;100.00
48553;BME280;34335;51.566;6.994;2023-03-01T00:34:35;102468.72;;;-1.53;100.00
48553;BME280;34335;51.566;6.994;2023-03-01T00:37:00;102472.81;;;-1.55;100.00
48553;BME280;34335;51.566;6.994;2023-03-01T00:39:30;102462.38;;;-1.59;100.00
48553;BME280;34335;51.566;6.994;2023-03-01T00:41:55;102466.50;;;-1.61;100.00
48553;BME280;34335;51.566;6.994;2023-03-01T00:44:21;102458.59;;;-1.64;100.00
48553;BME280;34335;51.566;6.994;2023-03-01T00:46:46;102453.38;;;-1.65;100.00
48553;BME280;34335;51.566;6.994;2023-03-01T00:49:13;102453.22;;;-1.67;100.00
48553;BME280;34335;51.566;6.994;2023-03-01T00:51:38;102451.44;;;-1.68;100.00
48553;BME280;34335;51.566;6.994;2023-03-01T00:54:08;102447.91;;;-1.70;100.00
48553;BME280;34335;51.566;6.994;2023-03-01T00:56:34;102451.44;;;-1.68;100.00
48553;BME280;34335;51.566;6.994;2023-03-01T00:58:59;102446.19;;;-1.59;100.00
48553;BME280;34335;51.566;6.994;2023-03-01T01:01:26;102438.25;;;-1.74;100.00
48553;BME280;34335;51.566;6.994;2023-03-01T01:03:57;102445.38;;;-1.70;100.00
48553;BME280;34335;51.566;6.994;2023-03-01T01:06:34;102441.56;;;-1.75;100.00
48553;BME280;34335;51.566;6.994;2023-03-01T01:09:00;102446.09;;;-1.83;100.00
48553;BME280;34335;51.566;6.994;2023-03-01T01:11:29;102446.19;;;-1.59;100.00
48553;BME280;34335;51.566;6.994;2023-03-01T01:13:55;102437.81;;;-1.68;100.00
48553;BME280;34335;51.566;6.994;2023-03-01T01:16:23;102425.44;;;-1.86;100.00
48553;BME280;34335;51.566;6.994;2023-03-01T01:18:49;102424.72;;;-1.95;100.00
48553;BME280;34335;51.566;6.994;2023-03-01T01:21:16;102423.81;;;-1.96;100.00
48553;BME280;34335;51.566;6.994;2023-03-01T01:23:43;102420.81;;;-2.02;100.00
48553;BME280;34335;51.566;6.994;2023-03-01T01:26:15;102425.66;;;-2.05;100.00
48553;BME280;34335;51.566;6.994;2023-03-01T01:28:41;102415.22;;;-2.08;100.00
48553;BME280;34335;51.566;6.994;2023-03-01T01:31:06;102410.66;;;-2.12;100.00
48553;BME280;34335;51.566;6.994;2023-03-01T01:33:33;102401.38;;;-2.12;100.00
48553;BME280;34335;51.566;6.994;2023-03-01T01:35:58;102404.69;;;-2.13;100.00
48553;BME280;34335;51.566;6.994;2023-03-01T01:38:24;102398.47;;;-2.16;100.00
48553;BME280;34335;51.566;6.994;2023-03-01T01:40:50;102400.75;;;-2.20;100.00
48553;BME280;34335;51.566;6.994;2023-03-01T01:45:46;102402.28;;;-2.22;100.00
48553;BME280;34335;51.566;6.994;2023-03-01T01:48:14;102404.38;;;-2.28;100.00
48553;BME280;34335;51.566;6.994;2023-03-01T01:50:41;102404.72;;;-2.23;100.00
48553;BME280;34335;51.566;6.994;2023-03-01T01:53:10;102397.47;;;-2.29;100.00
48553;BME280;34335;51.566;6.994;2023-03-01T01:55:41;102404.22;;;-2.29;100.00
48553;BME280;34335;51.566;6.994;2023-03-01T01:58:09;102404.88;;;-2.32;100.00
48553;BME280;34335;51.566;6.994;2023-03-01T02:00:37;102404.88;;;-2.32;100.00
48553;BME280;34335;51.566;6.994;2023-03-01T02:03:08;102403.00;;;-2.35;100.00
48553;BME280;34335;51.566;6.994;2023-03-01T02:05:40;102403.63;;;-2.37;100.00
48553;BME280;34335;51.566;6.994;2023-03-01T02:08:10;102401.19;;;-2.36;100.00
48553;BME280;34335;51.566;6.994;2023-03-01T02:10:37;102392.13;;;-2.32;100.00
48553;BME280;34335;51.566;6.994;2023-03-01T02:13:03;102375.47;;;-2.39;100.00
48553;BME280;34335;51.566;6.994;2023-03-01T02:15:34;102384.53;;;-2.42;100.00
48553;BME280;34335;51.566;6.994;2023-03-01T02:18:01;102390.41;;;-2.43;100.00
48553;BME280;34335;51.566;6.994;2023-03-01T02:21:08;102378.56;;;-2.43;100.00
48553;BME280;34335;51.566;6.994;2023-03-01T02:23:31;102385.19;;;-2.45;100.00
48553;BME280;34335;51.566;6.994;2023-03-01T02:28:37;102371.97;;;-2.51;100.00
48553;BME280;34335;51.566;6.994;2023-03-01T02:31:04;102366.53;;;-2.56;100.00
48553;BME280;34335;51.566;6.994;2023-03-01T02:33:49;102376.72;;;-2.56;100.00
48553;BME280;34335;51.566;6.994;2023-03-01T02:36:24;102374.94;;;-2.57;100.00
48553;BME280;34335;51.566;6.994;2023-03-01T02:38:52;102375.44;;;-2.61;100.00
48553;BME280;34335;51.566;6.994;2023-03-01T02:41:19;102378.88;;;-2.60;100.00
48553;BME280;34335;51.566;6.994;2023-03-01T02:43:45;102376.97;;;-2.63;100.00
48553;BME280;34335;51.566;6.994;2023-03-01T02:46:23;102374.31;;;-2.64;100.00
48553;BME280;34335;51.566;6.994;2023-03-01T02:48:52;102372.63;;;-2.64;100.00
48553;BME280;34335;51.566;6.994;2023-03-01T02:52:01;102378.63;;;-2.63;100.00
48553;BME280;34335;51.566;6.994;2023-03-01T02:54:35;102380.56;;;-2.71;100.00
48553;BME280;34335;51.566;6.994;2023-03-01T02:57:01;102374.59;;;-2.72;100.00
48553;BME280;34335;51.566;6.994;2023-03-01T02:59:30;102381.22;;;-2.74;100.00
48553;BME280;34335;51.566;6.994;2023-03-01T03:01:56;102377.78;;;-2.74;100.00
48553;BME280;34335;51.566;6.994;2023-03-01T03:04:22;102383.66;;;-2.75;100.00
48553;BME280;34335;51.566;6.994;2023-03-01T03:06:49;102379.31;;;-2.76;100.00
48553;BME280;34335;51.566;6.994;2023-03-01T03:09:15;102373.09;;;-2.80;100.00
48553;BME280;34335;51.566;6.994;2023-03-01T03:11:41;102383.50;;;-2.77;100.00
48553;BME280;34335;51.566;6.994;2023-03-01T03:14:09;102380.44;;;-2.73;100.00
48553;BME280;34335;51.566;6.994;2023-03-01T03:16:45;102378.16;;;-2.70;100.00
48553;BME280;34335;51.566;6.994;2023-03-01T03:19:11;102376.38;;;-2.71;100.00
48553;BME280;34335;51.566;6.994;2023-03-01T03:21:36;102378.31;;;-2.78;100.00
48553;BME280;34335;51.566;6.994;2023-03-01T03:24:02;102369.63;;;-2.80;100.00
48553;BME280;34335;51.566;6.994;2023-03-01T03:26:28;102364.94;;;-2.86;100.00
48553;BME280;34335;51.566;6.994;2023-03-01T03:28:53;102368.03;;;-2.90;100.00
48553;BME280;34335;51.566;6.994;2023-03-01T03:31:18;102372.19;;;-2.80;100.00
48553;BME280;34335;51.566;6.994;2023-03-01T03:33:44;102366.34;;;-2.90;100.00
48553;BME280;34335;51.566;6.994;2023-03-01T03:36:09;102361.91;;;-2.92;100.00
48553;BME280;34335;51.566;6.994;2023-03-01T03:38:42;102374.00;;;-2.90;100.00
48553;BME280;34335;51.566;6.994;2023-03-01T03:41:08;102367.66;;;-2.95;100.00
48553;BME280;34335;51.566;6.994;2023-03-01T03:43:35;102364.84;;;-2.98;100.00
48553;BME280;34335;51.566;6.994;2023-03-01T03:46:02;102361.06;;;-3.03;100.00
48553;BME280;34335;51.566;6.994;2023-03-01T03:48:31;102357.34;;;-3.07;100.00
48553;BME280;34335;51.566;6.994;2023-03-01T03:50:57;102356.34;;;-3.09;100.00
48553;BME280;34335;51.566;6.994;2023-03-01T03:53:25;102344.25;;;-3.11;100.00
48553;BME280;34335;51.566;6.994;2023-03-01T03:55:51;102348.56;;;-3.10;100.00
48553;BME280;34335;51.566;6.994;2023-03-01T03:58:18;102348.47;;;-3.12;100.00
48553;BME280;34335;51.566;6.994;2023-03-01T04:00:45;102350.91;;;-3.14;100.00
48553;BME280;34335;51.566;6.994;2023-03-01T04:03:12;102342.25;;;-3.16;100.00
48553;BME280;34335;51.566;6.994;2023-03-01T04:05:39;102337.66;;;-3.20;100.00
48553;BME280;34335;51.566;6.994;2023-03-01T04:08:06;102339.69;;;-3.16;100.00
48553;BME280;34335;51.566;6.994;2023-03-01T04:10:37;102335.38;;;-3.17;100.00
48553;BME280;34335;51.566;6.994;2023-03-01T04:13:04;102335.38;;;-3.17;100.00
48553;BME280;34335;51.566;6.994;2023-03-01T04:15:30;102331.91;;;-3.17;100.00
48553;BME280;34335;51.566;6.994;2023-03-01T04:17:55;102324.06;;;-3.20;100.00
48553;BME280;34335;51.566;6.994;2023-03-01T04:20:23;102321.50;;;-3.20;100.00
48553;BME280;34335;51.566;6.994;2023-03-01T04:23:00;102333.69;;;-3.16;100.00
48553;BME280;34335;51.566;6.994;2023-03-01T04:26:02;102327.06;;;-3.14;100.00
48553;BME280;34335;51.566;6.994;2023-03-01T04:28:38;102333.31;;;-3.21;100.00
48553;BME280;34335;51.566;6.994;2023-03-01T04:31:07;102330.72;;;-3.00;100.00
48553;BME280;34335;51.566;6.994;2023-03-01T04:33:43;102332.81;;;-3.17;100.00
48553;BME280;34335;51.566;6.994;2023-03-01T04:36:09;102337.28;;;-3.24;100.00
48553;BME280;34335;51.566;6.994;2023-03-01T04:38:36;102327.63;;;-3.29;100.00
48553;BME280;34335;51.566;6.994;2023-03-01T04:41:06;102330.28;;;-3.27;100.00
48553;BME280;34335;51.566;6.994;2023-03-01T04:43:32;102336.03;;;-3.30;100.00
48553;BME280;34335;51.566;6.994;2023-03-01T04:46:07;102332.34;;;-3.23;100.00
48553;BME280;34335;51.566;6.994;2023-03-01T04:48:35;102336.78;;;-3.31;100.00
48553;BME280;34335;51.566;6.994;2023-03-01T04:51:01;102334.34;;;-3.29;100.00
48553;BME280;34335;51.566;6.994;2023-03-01T04:53:27;102327.00;;;-3.36;100.00
48553;BME280;34335;51.566;6.994;2023-03-01T04:55:54;102322.41;;;-3.40;100.00
48553;BME280;34335;51.566;6.994;2023-03-01T04:58:21;102324.34;;;-3.38;100.00
48553;BME280;34335;51.566;6.994;2023-03-01T05:00:46;102320.88;;;-3.38;100.00
48553;BME280;34335;51.566;6.994;2023-03-01T05:03:11;102325.97;;;-3.38;100.00
48553;BME280;34335;51.566;6.994;2023-03-01T05:05:37;102321.16;;;-3.46;100.00
48553;BME280;34335;51.566;6.994;2023-03-01T05:08:06;102323.44;;;-3.38;100.00
48553;BME280;34335;51.566;6.994;2023-03-01T05:10:33;102324.72;;;-3.43;100.00
48553;BME280;34335;51.566;6.994;2023-03-01T05:13:00;102321.53;;;-3.41;100.00
48553;BME280;34335;51.566;6.994;2023-03-01T05:15:27;102322.41;;;-3.51;100.00
48553;BME280;34335;51.566;6.994;2023-03-01T05:17:53;102319.88;;;-3.51;100.00
48553;BME280;34335;51.566;6.994;2023-03-01T05:20:20;102314.41;;;-3.55;100.00
48553;BME280;34335;51.566;6.994;2023-03-01T05:22:49;102317.09;;;-3.54;100.00
48553;BME280;34335;51.566;6.994;2023-03-01T05:25:15;102309.22;;;-3.57;100.00
48553;BME280;34335;51.566;6.994;2023-03-01T05:27:40;102315.59;;;-3.62;100.00
48553;BME280;34335;51.566;6.994;2023-03-01T05:30:06;102309.09;;;-3.58;100.00
48553;BME280;34335;51.566;6.994;2023-03-01T05:32:45;102312.13;;;-3.52;100.00
48553;BME280;34335;51.566;6.994;2023-03-01T05:35:13;102313.66;;;-3.65;100.00
48553;BME280;34335;51.566;6.994;2023-03-01T05:37:46;102313.28;;;-3.59;100.00
48553;BME280;34335;51.566;6.994;2023-03-01T05:40:15;102310.63;;;-3.71;100.00
48553;BME280;34335;51.566;6.994;2023-03-01T05:43:00;102312.00;;;-3.74;100.00
48553;BME280;34335;51.566;6.994;2023-03-01T05:45:27;102309.22;;;-3.78;100.00
48553;BME280;34335;51.566;6.994;2023-03-01T05:47:53;102300.06;;;-3.76;100.00
48553;BME280;34335;51.566;6.994;2023-03-01T05:50:22;102303.09;;;-3.69;100.00
48553;BME280;34335;51.566;6.994;2023-03-01T05:52:50;102310.34;;;-3.74;100.00
48553;BME280;34335;51.566;6.994;2023-03-01T05:55:18;102311.09;;;-3.75;100.00
48553;BME280;34335;51.566;6.994;2023-03-01T05:57:43;102308.44;;;-3.77;100.00
48553;BME280;34335;51.566;6.994;2023-03-01T06:00:10;102311.00;;;-3.77;100.00
48553;BME280;34335;51.566;6.994;2023-03-01T06:02:35;102310.22;;;-3.86;100.00
48553;BME280;34335;51.566;6.994;2023-03-01T06:05:00;102312.28;;;-3.82;100.00
48553;BME280;34335;51.566;6.994;2023-03-01T06:07:26;102306.28;;;-3.82;100.00
48553;BME280;34335;51.566;6.994;2023-03-01T06:09:51;102302.34;;;-3.79;100.00
48553;BME280;34335;51.566;6.994;2023-03-01T06:12:16;102296.50;;;-3.78;100.00
48553;BME280;34335;51.566;6.994;2023-03-01T06:14:42;102302.88;;;-3.72;100.00
48553;BME280;34335;51.566;6.994;2023-03-01T06:17:07;102302.09;;;-3.82;100.00
48553;BME280;34335;51.566;6.994;2023-03-01T06:19:33;102294.84;;;-3.87;100.00
48553;BME280;34335;51.566;6.994;2023-03-01T06:21:58;102294.47;;;-3.82;100.00
48553;BME280;34335;51.566;6.994;2023-03-01T06:24:23;102280.47;;;-3.77;100.00
48553;BME280;34335;51.566;6.994;2023-03-01T06:26:48;102288.22;;;-3.75;100.00
48553;BME280;34335;51.566;6.994;2023-03-01T06:29:14;102288.63;;;-3.81;100.00
48553;BME280;34335;51.566;6.994;2023-03-01T06:31:39;102290.28;;;-3.92;100.00
48553;BME280;34335;51.566;6.994;2023-03-01T06:34:05;102288.09;;;-3.87;100.00
48553;BME280;34335;51.566;6.994;2023-03-01T06:36:30;102297.03;;;-3.82;100.00
48553;BME280;34335;51.566;6.994;2023-03-01T06:38:55;102282.53;;;-3.93;100.00
48553;BME280;34335;51.566;6.994;2023-03-01T06:41:20;102284.81;;;-3.96;100.00
48553;BME280;34335;51.566;6.994;2023-03-01T06:43:46;102290.91;;;-3.94;100.00
48553;BME280;34335;51.566;6.994;2023-03-01T06:46:11;102289.38;;;-4.02;100.00
48553;BME280;34335;51.566;6.994;2023-03-01T06:48:36;102287.09;;;-3.79;100.00
48553;BME280;34335;51.566;6.994;2023-03-01T06:51:02;102293.19;;;-3.87;100.00
48553;BME280;34335;51.566;6.994;2023-03-01T06:53:28;102288.25;;;-3.85;100.00
48553;BME280;34335;51.566;6.994;2023-03-01T06:55:57;102300.59;;;-3.90;100.00
48553;BME280;34335;51.566;6.994;2023-03-01T06:58:24;102294.84;;;-3.77;100.00
48553;BME280;34335;51.566;6.994;2023-03-01T07:00:49;102297.00;;;-3.92;100.00
48553;BME280;34335;51.566;6.994;2023-03-01T07:03:14;102301.84;;;-3.85;100.00
48553;BME280;34335;51.566;6.994;2023-03-01T07:05:40;102294.34;;;-3.83;100.00
48553;BME280;34335;51.566;6.994;2023-03-01T07:08:05;102298.41;;;-3.85;100.00
48553;BME280;34335;51.566;6.994;2023-03-01T07:10:30;102296.00;;;-3.84;100.00
48553;BME280;34335;51.566;6.994;2023-03-01T07:12:57;102299.69;;;-3.91;100.00
48553;BME280;34335;51.566;6.994;2023-03-01T07:15:22;102295.63;;;-3.68;100.00
48553;BME280;34335;51.566;6.994;2023-03-01T07:17:48;102298.81;;;-3.81;100.00
48553;BME280;34335;51.566;6.994;2023-03-01T07:20:16;102296.13;;;-3.82;100.00
48553;BME280;34335;51.566;6.994;2023-03-01T07:22:41;102300.56;;;-3.80;100.00
48553;BME280;34335;51.566;6.994;2023-03-01T07:25:08;102293.72;;;-3.81;100.00
48553;BME280;34335;51.566;6.994;2023-03-01T07:27:33;102289.41;;;-3.82;100.00
48553;BME280;34335;51.566;6.994;2023-03-01T07:29:59;102290.28;;;-3.71;100.00
48553;BME280;34335;51.566;6.994;2023-03-01T07:32:24;102287.34;;;-3.76;100.00
48553;BME280;34335;51.566;6.994;2023-03-01T07:34:51;102290.63;;;-3.46;100.00
48553;BME280;34335;51.566;6.994;2023-03-01T07:37:16;102285.94;;;-3.62;100.00
48553;BME280;34335;51.566;6.994;2023-03-01T07:39:42;102285.56;;;-3.66;100.00
48553;BME280;34335;51.566;6.994;2023-03-01T07:42:07;102285.28;;;-3.49;100.00
48553;BME280;34335;51.566;6.994;2023-03-01T07:44:33;102290.44;;;-3.26;100.00
48553;BME280;34335;51.566;6.994;2023-03-01T07:46:59;102283.69;;;-3.16;100.00
48553;BME280;34335;51.566;6.994;2023-03-01T07:49:25;102279.81;;;-3.00;100.00
48553;BME280;34335;51.566;6.994;2023-03-01T07:51:51;102279.91;;;-2.88;100.00
48553;BME280;34335;51.566;6.994;2023-03-01T07:54:17;102275.56;;;-2.79;100.00
48553;BME280;34335;51.566;6.994;2023-03-01T07:56:43;102277.31;;;-2.78;100.00
48553;BME280;34335;51.566;6.994;2023-03-01T07:59:08;102275.47;;;-2.69;100.00
48553;BME280;34335;51.566;6.994;2023-03-01T08:01:33;102277.66;;;-2.73;100.00
48553;BME280;34335;51.566;6.994;2023-03-01T08:03:59;102280.16;;;-2.63;100.00
48553;BME280;34335;51.566;6.994;2023-03-01T08:06:24;102279.59;;;-2.71;100.00
48553;BME280;34335;51.566;6.994;2023-03-01T08:08:49;102286.69;;;-2.67;100.00
48553;BME280;34335;51.566;6.994;2023-03-01T08:11:15;102280.66;;;-2.57;100.00
48553;BME280;34335;51.566;6.994;2023-03-01T08:13:40;102279.03;;;-2.44;100.00
48553;BME280;34335;51.566;6.994;2023-03-01T08:16:11;102277.59;;;-1.96;100.00
48553;BME280;34335;51.566;6.994;2023-03-01T08:18:37;102276.88;;;-2.17;100.00
48553;BME280;34335;51.566;6.994;2023-03-01T08:21:04;102283.50;;;-2.20;100.00
48553;BME280;34335;51.566;6.994;2023-03-01T08:23:29;102277.84;;;-2.15;100.00
48553;BME280;34335;51.566;6.994;2023-03-01T08:26:04;102288.56;;;-1.97;100.00
48553;BME280;34335;51.566;6.994;2023-03-01T08:28:29;102276.59;;;-1.98;100.00
48553;BME280;34335;51.566;6.994;2023-03-01T08:30:55;102274.97;;;-1.86;100.00
48553;BME280;34335;51.566;6.994;2023-03-01T08:33:20;102273.34;;;-1.62;100.00
48553;BME280;34335;51.566;6.994;2023-03-01T08:35:45;102271.00;;;-1.70;100.00
48553;BME280;34335;51.566;6.994;2023-03-01T08:38:10;102275.41;;;-1.68;100.00
48553;BME280;34335;51.566;6.994;2023-03-01T08:40:36;102267.13;;;-1.65;100.00
48553;BME280;34335;51.566;6.994;2023-03-01T08:43:01;102264.69;;;-1.64;100.00
48553;BME280;34335;51.566;6.994;2023-03-01T08:45:26;102261.94;;;-1.43;100.00
48553;BME280;34335;51.566;6.994;2023-03-01T08:47:52;102268.38;;;-1.24;100.00
48553;BME280;34335;51.566;6.994;2023-03-01T08:50:18;102265.91;;;-1.23;100.00
48553;BME280;34335;51.566;6.994;2023-03-01T08:52:43;102257.03;;;-1.04;100.00
48553;BME280;34335;51.566;6.994;2023-03-01T08:55:09;102255.34;;;-0.92;100.00
48553;BME280;34335;51.566;6.994;2023-03-01T08:57:34;102256.03;;;-0.95;100.00
48553;BME280;34335;51.566;6.994;2023-03-01T08:59:59;102251.75;;;-0.70;100.00
48553;BME280;34335;51.566;6.994;2023-03-01T09:02:25;102246.44;;;-0.73;100.00
48553;BME280;34335;51.566;6.994;2023-03-01T09:04:50;102246.94;;;-0.54;100.00
48553;BME280;34335;51.566;6.994;2023-03-01T09:07:15;102251.88;;;-0.43;100.00
48553;BME280;34335;51.566;6.994;2023-03-01T09:09:40;102252.25;;;-0.51;100.00
48553;BME280;34335;51.566;6.994;2023-03-01T09:12:06;102243.91;;;0.16;100.00
48553;BME280;34335;51.566;6.994;2023-03-01T09:14:31;102251.75;;;-0.08;100.00
48553;BME280;34335;51.566;6.994;2023-03-01T09:16:57;102250.66;;;-0.11;100.00
48553;BME280;34335;51.566;6.994;2023-03-01T09:19:22;102251.66;;;0.04;100.00
48553;BME280;34335;51.566;6.994;2023-03-01T09:21:47;102242.81;;;0.12;100.00
48553;BME280;34335;51.566;6.994;2023-03-01T09:24:22;102249.81;;;0.15;100.00
48553;BME280;34335;51.566;6.994;2023-03-01T09:26:48;102240.31;;;0.39;100.00
48553;BME280;34335;51.566;6.994;2023-03-01T09:29:15;102228.81;;;0.59;100.00
48553;BME280;34335;51.566;6.994;2023-03-01T09:31:41;102224.66;;;0.75;100.00
48553;BME280;34335;51.566;6.994;2023-03-01T09:34:08;102232.75;;;0.81;100.00
48553;BME280;34335;51.566;6.994;2023-03-01T09:36:33;102236.28;;;0.97;100.00
48553;BME280;34335;51.566;6.994;2023-03-01T09:38:59;102232.44;;;0.90;100.00
48553;BME280;34335;51.566;6.994;2023-03-01T09:41:49;102226.47;;;1.18;100.00
48553;BME280;34335;51.566;6.994;2023-03-01T09:44:27;102226.59;;;1.19;100.00
48553;BME280;34335;51.566;6.994;2023-03-01T09:46:55;102233.44;;;1.34;100.00
48553;BME280;34335;51.566;6.994;2023-03-01T09:49:25;102225.72;;;1.47;100.00
48553;BME280;34335;51.566;6.994;2023-03-01T09:52:19;102221.69;;;1.66;100.00
48553;BME280;34335;51.566;6.994;2023-03-01T09:54:49;102217.78;;;1.58;100.00
48553;BME280;34335;51.566;6.994;2023-03-01T10:00:22;102214.09;;;1.82;100.00
48553;BME280;34335;51.566;6.994;2023-03-01T10:02:58;102214.91;;;1.96;100.00
48553;BME280;34335;51.566;6.994;2023-03-01T10:05:34;102223.94;;;2.20;100.00
48553;BME280;34335;51.566;6.994;2023-03-01T10:10:38;102211.28;;;2.23;100.00
48553;BME280;34335;51.566;6.994;2023-03-01T10:13:37;102203.47;;;2.36;100.00
48553;BME280;34335;51.566;6.994;2023-03-01T10:16:21;102208.69;;;2.53;95.12
48553;BME280;34335;51.566;6.994;2023-03-01T10:18:53;102206.91;;;2.67;97.60
48553;BME280;34335;51.566;6.994;2023-03-01T10:21:20;102199.44;;;2.71;96.78
48553;BME280;34335;51.566;6.994;2023-03-01T10:23:49;102181.97;;;2.80;96.78
48553;BME280;34335;51.566;6.994;2023-03-01T10:29:08;102187.00;;;3.27;91.65
48553;BME280;34335;51.566;6.994;2023-03-01T10:31:54;102182.16;;;3.33;97.00
48553;BME280;34335;51.566;6.994;2023-03-01T10:34:26;102183.69;;;3.30;93.05
48553;BME280;34335;51.566;6.994;2023-03-01T10:37:08;102174.78;;;3.39;94.92
48553;BME280;34335;51.566;6.994;2023-03-01T10:39:34;102185.06;;;3.56;95.85
48553;BME280;34335;51.566;6.994;2023-03-01T10:42:04;102185.47;;;3.64;93.06
48553;BME280;34335;51.566;6.994;2023-03-01T10:44:42;102183.25;;;3.71;86.56
48553;BME280;34335;51.566;6.994;2023-03-01T10:47:26;102172.28;;;3.92;85.58
48553;BME280;34335;51.566;6.994;2023-03-01T10:52:21;102173.22;;;4.29;88.56
48553;BME280;34335;51.566;6.994;2023-03-01T10:54:53;102162.50;;;4.38;82.89
48553;BME280;34335;51.566;6.994;2023-03-01T10:57:31;102150.84;;;4.46;80.74
48553;BME280;34335;51.566;6.994;2023-03-01T11:00:14;102154.72;;;4.74;82.64
48553;BME280;34335;51.566;6.994;2023-03-01T11:02:47;102152.75;;;4.68;77.15
48553;BME280;34335;51.566;6.994;2023-03-01T11:05:21;102153.19;;;4.59;83.98
48553;BME280;34335;51.566;6.994;2023-03-01T11:07:53;102149.06;;;4.63;84.62
48553;BME280;34335;51.566;6.994;2023-03-01T11:10:26;102144.91;;;4.84;81.03
48553;BME280;34335;51.566;6.994;2023-03-01T11:12:52;102132.63;;;4.98;81.37
48553;BME280;34335;51.566;6.994;2023-03-01T11:15:36;102129.59;;;5.27;84.73
48553;BME280;34335;51.566;6.994;2023-03-01T11:18:02;102145.53;;;5.18;79.10
48553;BME280;34335;51.566;6.994;2023-03-01T11:20:37;102121.66;;;5.22;78.04
48553;BME280;34335;51.566;6.994;2023-03-01T11:23:06;102120.94;;;5.26;79.10
48553;BME280;34335;51.566;6.994;2023-03-01T11:25:37;102119.53;;;5.33;74.46
48553;BME280;34335;51.566;6.994;2023-03-01T11:28:06;102117.69;;;5.50;78.97
48553;BME280;34335;51.566;6.994;2023-03-01T11:30:44;102115.16;;;5.73;78.76
48553;BME280;34335;51.566;6.994;2023-03-01T11:33:30;102103.09;;;5.72;75.47
48553;BME280;34335;51.566;6.994;2023-03-01T11:38:41;102106.03;;;6.01;76.51
48553;BME280;34335;51.566;6.994;2023-03-01T11:41:15;102103.41;;;6.22;77.09
48553;BME280;34335;51.566;6.994;2023-03-01T11:44:03;102107.94;;;6.50;73.28
48553;BME280;34335;51.566;6.994;2023-03-01T11:52:13;102104.81;;;6.82;75.17
48553;BME280;34335;51.566;6.994;2023-03-01T11:55:07;102107.63;;;6.88;68.38
48553;BME280;34335;51.566;6.994;2023-03-01T12:00:47;102115.16;;;6.82;70.40
48553;BME280;34335;51.566;6.994;2023-03-01T12:03:38;102099.88;;;7.12;71.23
48553;BME280;34335;51.566;6.994;2023-03-01T12:06:41;102100.81;;;6.90;63.01
48553;BME280;34335;51.566;6.994;2023-03-01T12:09:28;102103.81;;;7.02;68.15
48553;BME280;34335;51.566;6.994;2023-03-01T12:12:22;102097.38;;;6.67;59.78
48553;BME280;34335;51.566;6.994;2023-03-01T12:20:46;102084.78;;;7.51;64.21
48553;BME280;34335;51.566;6.994;2023-03-01T12:23:40;102073.25;;;7.67;62.29
48553;BME280;34335;51.566;6.994;2023-03-01T12:26:23;102081.88;;;7.41;62.73
48553;BME280;34335;51.566;6.994;2023-03-01T12:29:22;102076.28;;;7.29;60.45
48553;BME280;34335;51.566;6.994;2023-03-01T12:37:31;102058.34;;;7.87;60.69
48553;BME280;34335;51.566;6.994;2023-03-01T12:40:20;102051.78;;;8.25;62.00
48553;BME280;34335;51.566;6.994;2023-03-01T12:43:03;102057.25;;;8.07;60.39
48553;BME280;34335;51.566;6.994;2023-03-01T12:50:54;102044.72;;;8.81;60.00
48553;BME280;34335;51.566;6.994;2023-03-01T12:53:34;102050.16;;;8.58;58.02
48553;BME280;34335;51.566;6.994;2023-03-01T12:56:05;102044.03;;;8.56;59.05
48553;BME280;34335;51.566;6.994;2023-03-01T12:58:32;102039.09;;;8.35;52.63
48553;BME280;34335;51.566;6.994;2023-03-01T13:07:04;102031.75;;;9.48;55.08
48553;BME280;34335;51.566;6.994;2023-03-01T13:09:55;102032.13;;;8.95;55.34
48553;BME280;34335;51.566;6.994;2023-03-01T13:17:47;102026.66;;;9.16;55.85
48553;BME280;34335;51.566;6.994;2023-03-01T13:20:15;102021.59;;;9.20;52.93
48553;BME280;34335;51.566;6.994;2023-03-01T13:22:41;102028.34;;;9.86;56.49
48553;BME280;34335;51.566;6.994;2023-03-01T13:27:38;102022.31;;;10.26;54.10
48553;BME280;34335;51.566;6.994;2023-03-01T13:30:12;102016.78;;;9.73;54.96
48553;BME280;34335;51.566;6.994;2023-03-01T13:32:49;102013.06;;;10.39;51.22
48553;BME280;34335;51.566;6.994;2023-03-01T13:37:40;102014.28;;;10.55;52.29
48553;BME280;34335;51.566;6.994;2023-03-01T13:42:54;101998.81;;;10.62;53.57
48553;BME280;34335;51.566;6.994;2023-03-01T13:45:21;101994.53;;;10.65;53.63
48553;BME280;34335;51.566;6.994;2023-03-01T13:47:52;101990.09;;;10.59;53.75
48553;BME280;34335;51.566;6.994;2023-03-01T13:50:23;101986.38;;;10.48;51.47
48553;BME280;34335;51.566;6.994;2023-03-01T13:53:00;101980.78;;;11.21;52.19
48553;BME280;34335;51.566;6.994;2023-03-01T13:55:40;101970.00;;;11.00;54.76
48553;BME280;34335;51.566;6.994;2023-03-01T13:58:23;101970.94;;;11.05;53.45
48553;BME280;34335;51.566;6.994;2023-03-01T14:03:27;101958.97;;;11.15;50.08